Surface/Precipitation History
02/25/2017 00:39  to  2/26/2017 00:39
Change End Date:
Date/Time
(MST)
Sf
Temp Chem Water Layer Surface Precipitation
Sfc Pvt Sub Frz Factor Pct Dpth DpthThk IcePct Cond Salin FI Type Intens Accum Rate
02/26/2017 00:31 Ice Warning 25.3F - 31F 32F 90 0% - - 99% 0 mhos 56 - Yes - - -
02/26/2017 00:22 Ice Warning 25.2F - 31F 32F 50 0% - - 99% 0 mhos 42 - Yes - - -
02/26/2017 00:16 Ice Warning 25.3F - 31F 32F 35 0% - - 100% 0 mhos 33 - Yes - - -
02/26/2017 00:12 Ice Warning 25.3F - 31F 32F 25 0% - - 100% 0 mhos 31 - Yes - - -
02/26/2017 00:02 Ice Warning 24.8F - 31F 32F 20 0% - - 100% 0 mhos 26 - None None - -
02/26/2017 00:01 Ice Warning 24.8F - 31F 32F 20 0% - - 100% 0 mhos 26 - Yes - - -
02/25/2017 23:52 Ice Warning 24.6F - 31F 32F 20 0% - - 100% 0 mhos 25 - None None - -
02/25/2017 23:46 Ice Warning 24.6F - 31F 32F 20 0% - - 100% 0 mhos 25 - None None - -
02/25/2017 23:41 Ice Warning 24.6F - 31F 32F 20 0% - - 100% 0 mhos 25 - None None - -
02/25/2017 23:31 Ice Warning 24.6F - 31F 32F 20 0% - - 100% 0 mhos 25 - None None - -
02/25/2017 23:31 Ice Warning 24.6F - 31F 32F 20 0% - - 100% 0 mhos 25 - None None - -
02/25/2017 23:21 Ice Warning 24.6F - 31F 32F 15 0% - - 100% 0 mhos 25 - None None - -
02/25/2017 23:16 Ice Warning 24.6F - 31F 32F 20 0% - - 100% 0 mhos 25 - None None - -
02/25/2017 23:11 Ice Warning 24.6F - 31F 32F 15 0% - - 100% 0 mhos 24 - None None - -
02/25/2017 23:01 Ice Warning 24.4F - 31F 32F 15 0% - - 100% 0 mhos 24 - None None - -
Date/Time
(MST)
Sf
Temp Chem Water Layer Surface Precipitation
Sfc Pvt Sub Frz Factor Pct Dpth DpthThk IcePct Cond Salin FI Type Intens Accum Rate
02/25/2017 23:01 Ice Warning 24.4F - 31F 32F 15 0% - - 100% 0 mhos 24 - None None - -
02/25/2017 22:51 Ice Warning 24.6F - 31F 32F 20 0% - - 100% 0 mhos 24 - None None - -
02/25/2017 22:46 Ice Warning 24.6F - 31F 32F 20 0% - - 100% 0 mhos 24 - None None - -
02/25/2017 22:41 Ice Warning 24.8F - 31F 32F 15 0% - - 100% 0 mhos 24 - None None - -
02/25/2017 22:31 Ice Warning 25.0F - 31F 32F 20 0% - - 100% 0 mhos 24 - None None - -
02/25/2017 22:31 Ice Warning 25.0F - 31F 32F 20 0% - - 100% 0 mhos 24 - None None - -
02/25/2017 22:21 Ice Warning 25.2F - 31F 32F 20 0% - - 100% 0 mhos 24 - None None - -
02/25/2017 22:16 Ice Warning 25.3F - 31F 32F 20 0% - - 100% 0 mhos 24 - None None - -
02/25/2017 22:11 Ice Warning 25.5F - 31F 32F 15 0% - - 100% 0 mhos 23 - None None - -
02/25/2017 22:01 Ice Warning 25.7F - 31F 32F 20 0% - - 100% 0 mhos 23 - None None - -
02/25/2017 22:01 Ice Warning 25.7F - 31F 32F 20 0% - - 100% 0 mhos 23 - None None - -
02/25/2017 21:51 Ice Warning 25.7F - 31F 32F 15 0% - - 100% 0 mhos 23 - None None - -
02/25/2017 21:46 Ice Warning 25.9F - 31F 32F 15 0% - - 100% 0 mhos 22 - None None - -
02/25/2017 21:41 Ice Warning 25.9F - 31F 32F 20 0% - - 100% 0 mhos 22 - None None - -
02/25/2017 21:31 Ice Warning 25.9F - 31F 32F 20 0% - - 100% 0 mhos 22 - None None - -
Date/Time
(MST)
Sf
Temp Chem Water Layer Surface Precipitation
Sfc Pvt Sub Frz Factor Pct Dpth DpthThk IcePct Cond Salin FI Type Intens Accum Rate
02/25/2017 21:31 Ice Warning 25.9F - 31F 32F 20 0% - - 100% 0 mhos 22 - None None - -
02/25/2017 21:21 Ice Warning 25.9F - 31F 32F 15 0% - - 100% 0 mhos 21 - None None - -
02/25/2017 21:16 Ice Warning 26.1F - 31F 32F 15 0% - - 100% 0 mhos 21 - None None - -
02/25/2017 21:11 Ice Warning 26.2F - 31F 32F 15 0% - - 100% 0 mhos 21 - None None - -
02/25/2017 21:01 Ice Warning 26.6F - 31F 32F 15 0% - - 100% 0 mhos 20 - None None - -
02/25/2017 21:01 Ice Warning 26.6F - 31F 32F 15 0% - - 100% 0 mhos 20 - None None - -
02/25/2017 20:51 Ice Warning 26.6F - 31F 32F 15 0% - - 100% 0 mhos 20 - None None - -
02/25/2017 20:46 Ice Warning 26.6F - 31F 32F 15 0% - - 100% 0 mhos 20 - None None - -
02/25/2017 20:41 Ice Warning 26.6F - 31F 32F 10 0% - - 100% 0 mhos 20 - None None - -
02/25/2017 20:31 Ice Warning 26.6F - 31F 32F 15 0% - - 100% 0 mhos 19 - None None - -
02/25/2017 20:30 Ice Warning 26.6F - 31F 32F 15 0% - - 100% 0 mhos 19 - None None - -
02/25/2017 20:20 Ice Warning 27.0F - 31F 32F 10 0% - - 100% 0 mhos 18 - None None - -
02/25/2017 20:16 Ice Warning 27.0F - 31F 32F 10 0% - - 100% 0 mhos 18 - None None - -
02/25/2017 20:10 Ice Warning 27.0F - 31F 32F 10 0% - - 100% 0 mhos 17 - None None - -
02/25/2017 20:01 Ice Warning 27.1F - 31F 32F 5 0% - - 100% 0 mhos 17 - None None - -
Date/Time
(MST)
Sf
Temp Chem Water Layer Surface Precipitation
Sfc Pvt Sub Frz Factor Pct Dpth DpthThk IcePct Cond Salin FI Type Intens Accum Rate
02/25/2017 20:00 Ice Warning 27.1F - 31F 32F 5 0% - - 100% 0 mhos 17 - None None - -
02/25/2017 19:50 Ice Warning 27.1F - 31F 32F 5 0% - - 100% 0 mhos 16 - None None - -
02/25/2017 19:46 Ice Warning 27.1F - 31F 32F 10 0% - - 100% 0 mhos 16 - None None - -
02/25/2017 19:40 Ice Warning 27.1F - 31F 32F 5 0% - - 100% 0 mhos 16 - None None - -
02/25/2017 19:31 Ice Warning 27.1F - 31F 32F 5 0% - - 100% 0 mhos 15 - None None - -
02/25/2017 19:30 Ice Warning 27.1F - 31F 32F 5 0% - - 100% 0 mhos 15 - None None - -
02/25/2017 19:20 Ice Warning 27.1F - 31F 32F 5 0% - - 100% 0 mhos 15 - None None - -
02/25/2017 19:16 Ice Warning 27.1F - 31F 32F 5 0% - - 100% 0 mhos 15 - None None - -
02/25/2017 19:10 Ice Warning 27.1F - 31F 32F 5 0% - - 100% 0 mhos 15 - None None - -
02/25/2017 19:01 Ice Warning 27.0F - 31F 32F 5 0% - - 100% 0 mhos 14 - None None - -
02/25/2017 19:00 Ice Warning 27.0F - 31F 32F 5 0% - - 100% 0 mhos 14 - None None - -
02/25/2017 18:50 Ice Warning 27.1F - 31F 32F 5 0% - - 100% 0 mhos 14 - None None - -
02/25/2017 18:46 Ice Warning 27.3F - 31F 32F 5 0% - - 100% 0 mhos 14 - None None - -
02/25/2017 18:40 Ice Warning 27.7F - 31F 32F 5 0% - - 100% 0 mhos 14 - None None - -
02/25/2017 18:31 Ice Warning 27.9F - 31F 32F 5 0% - - 100% 0 mhos 13 - None None - -
Date/Time
(MST)
Sf
Temp Chem Water Layer Surface Precipitation
Sfc Pvt Sub Frz Factor Pct Dpth DpthThk IcePct Cond Salin FI Type Intens Accum Rate
02/25/2017 18:30 Ice Warning 27.9F - 31F 32F 5 0% - - 100% 0 mhos 13 - None None - -
02/25/2017 18:20 Ice Warning 28.0F - 31F 32F 5 0% - - 100% 0 mhos 13 - None None - -
02/25/2017 18:16 Ice Warning 28.4F - 31F 32F 5 0% - - 100% 0 mhos 13 - Yes - - -
02/25/2017 18:10 Ice Warning 28.9F - 31F 32F 5 0% - - 100% 0 mhos 12 - None None - -
02/25/2017 18:01 Ice Warning 29.3F - 31F 32F 5 0% - - 100% 0 mhos 12 - None None - -
02/25/2017 18:00 Ice Warning 29.3F - 31F 32F 5 0% - - 100% 0 mhos 12 - None None - -
02/25/2017 17:50 Ice Warning 30.2F - 31F 32F 5 0% - - 99% 0 mhos 12 - None None - -
02/25/2017 17:46 Ice Warning 30.2F - 31F 32F 5 0% - - 99% 0 mhos 12 - None None - -
02/25/2017 17:40 Ice Warning 30.6F - 31F 32F 5 0% - - 99% 0 mhos 11 - None None - -
02/25/2017 17:31 Ice Warning 31.1F - 31F 32F 5 0% - - 99% 0 mhos 9 - None None - -
02/25/2017 17:30 Ice Warning 31.1F - 31F 32F 5 0% - - 99% 0 mhos 9 - None None - -
02/25/2017 17:20 Ice Warning 31.5F - 31F 32F 5 0% - - 99% 0 mhos 8 - None None - -
02/25/2017 17:16 Ice Warning 31.5F - 31F 32F 5 0% - - 98% 0 mhos 8 - None None - -
02/25/2017 17:09 Chemically Wet 32.0F - 31F 32F 5 0% 0.00 in - 0% 0 mhos 8 - None None - -
02/25/2017 17:01 Wet 32.5F - 31F 32F 5 0% 0.00 in - 0% 0 mhos 8 - None None - -
Date/Time
(MST)
Sf
Temp Chem Water Layer Surface Precipitation
Sfc Pvt Sub Frz Factor Pct Dpth DpthThk IcePct Cond Salin FI Type Intens Accum Rate
02/25/2017 16:59 Wet 32.4F - 31F 32F 5 0% 0.00 in - 0% 0 mhos 8 - None None - -
02/25/2017 16:49 Wet 33.4F - 31F 32F 5 0% 0.00 in - 0% 0 mhos 11 - None None - -
02/25/2017 16:46 Wet 33.6F - 31F 32F 5 0% 0.00 in - 0% 0 mhos 9 - None None - -
02/25/2017 16:39 Wet 33.8F - 31F 32F 5 0% 0.00 in - 0% 0 mhos 11 - None None - -
02/25/2017 16:31 Wet 34.5F - 31F 32F 5 0% 0.00 in - 0% 0 mhos 12 - Yes - - -
02/25/2017 16:29 Wet 34.2F - 31F 32F 5 0% 0.00 in - 0% 0 mhos 12 - Yes - - -
02/25/2017 16:19 Wet 35.1F - 31F 32F 5 0% 0.00 in - 0% 0 mhos 7 - None None - -
02/25/2017 16:16 Wet 36.0F - 31F 32F 5 0% 0.00 in - 0% 0 mhos 7 - None None - -
02/25/2017 16:09 Wet 35.8F - 31F 32F 5 0% 0.00 in - 0% 0 mhos 7 - Yes - - -
02/25/2017 16:01 Wet 36.1F - 31F 32F 5 0% 0.00 in - 0% 0 mhos 7 - None None - -
02/25/2017 15:59 Wet 36.5F - 31F 32F 5 0% 0.00 in - 0% 0 mhos 7 - None None - -
02/25/2017 15:49 Wet 36.3F - 31F 32F 5 0% 0.00 in - 0% 0 mhos 1 - None None - -
02/25/2017 15:46 Wet 36.9F - 31F 32F 5 0% 0.00 in - 0% 0 mhos 1 - None None - -
02/25/2017 15:39 Wet 37.6F - 31F 32F 5 0% 0.00 in - 0% 0 mhos 1 - None None - -
02/25/2017 15:31 Dry 39.4F - 31F - - - - - - 0 mhos 1 - None None - -
Date/Time
(MST)
Sf
Temp Chem Water Layer Surface Precipitation
Sfc Pvt Sub Frz Factor Pct Dpth DpthThk IcePct Cond Salin FI Type Intens Accum Rate
02/25/2017 15:29 Dry 39.6F - 31F - - - - - - 0 mhos 0 - Yes - - -
02/25/2017 15:19 Dry 44.1F - 31F - - - - - - 0 mhos 1 - Yes - - -
02/25/2017 15:16 Dry 44.6F - 31F - - - - - - 0 mhos 1 - None None - -
02/25/2017 15:09 Dry 43.0F - 31F - - - - - - 0 mhos 1 - None None - -
02/25/2017 15:01 Dry 43.7F - 31F - - - - - - 0 mhos 1 - None None - -
02/25/2017 14:59 Dry 43.3F - 31F - - - - - - 0 mhos 1 - None None - -
02/25/2017 14:49 Dry 38.1F - 31F - - - - - - 0 mhos 1 - None None - -
02/25/2017 14:46 Dry 40.1F - 31F - - - - - - 0 mhos 2 - None None - -
02/25/2017 14:39 Dry 39.7F - 31F - - - - - - 0 mhos 2 - None None - -
02/25/2017 14:31 Dry 40.3F - 31F - - - - - - 0 mhos 3 - None None - -
02/25/2017 14:29 Dry 42.1F - 31F - - - - - - 0 mhos 4 - None None - -
02/25/2017 14:19 Dry 40.3F - 31F - - - - - - 0 mhos 6 - None None - -
02/25/2017 14:16 Dry 40.1F - 31F - - - - - - 0 mhos 6 - None None - -
02/25/2017 14:09 Wet 39.0F - 31F 32F 5 0% 0.00 in - 0% 0 mhos 6 - Yes - - -
02/25/2017 14:01 Wet 38.5F - 31F 32F 5 0% 0.00 in - 0% 0 mhos 7 - Yes - - -
Date/Time
(MST)
Sf
Temp Chem Water Layer Surface Precipitation
Sfc Pvt Sub Frz Factor Pct Dpth DpthThk IcePct Cond Salin FI Type Intens Accum Rate
02/25/2017 13:59 Wet 38.5F - 31F 32F 5 0% 0.00 in - 0% 0 mhos 8 - Yes - - -
02/25/2017 13:48 Wet 38.5F - 31F 32F 5 0% 0.00 in - 0% 0 mhos 5 - None None - -
02/25/2017 13:46 Wet 38.1F - 31F 32F 5 0% 0.00 in - 0% 0 mhos 5 - None None - -
02/25/2017 13:38 Wet 37.6F - 31F 32F 5 0% 0.00 in - 0% 0 mhos 4 - Yes - - -
02/25/2017 13:31 Wet 38.7F - 31F 32F 5 0% 0.00 in - 0% 0 mhos 1 - None None - -
02/25/2017 13:28 Dry 38.3F - 31F - - - - - - 0 mhos 1 - None None - -
02/25/2017 13:18 Dry 39.2F - 31F - - - - - - 0 mhos 1 - None None - -
02/25/2017 13:16 Dry 38.7F - 31F - - - - - - 0 mhos 1 - Yes - - -
02/25/2017 13:08 Dry 39.2F - 31F - - - - - - 0 mhos 1 - Yes - - -
02/25/2017 13:01 Dry 38.7F - 31F - - - - - - 0 mhos 1 - None None - -
02/25/2017 12:58 Dry 38.7F - 31F - - - - - - 0 mhos 1 - None None - -
02/25/2017 12:48 Dry 39.7F - 31F - - - - - - 0 mhos 2 - None None - -
02/25/2017 12:46 Dry 39.4F - 31F - - - - - - 0 mhos 2 - None None - -
02/25/2017 12:38 Dry 39.2F - 31F - - - - - - 0 mhos 3 - None None - -
02/25/2017 12:31 Dry 40.6F - 31F - - - - - - 0 mhos 4 - None None - -
Date/Time
(MST)
Sf
Temp Chem Water Layer Surface Precipitation
Sfc Pvt Sub Frz Factor Pct Dpth DpthThk IcePct Cond Salin FI Type Intens Accum Rate
02/25/2017 12:28 Dry 41.2F - 31F - - - - - - 0 mhos 5 - None None - -
02/25/2017 12:18 Wet 40.1F - 31F 32F 5 0% 0.00 in - 0% 0 mhos 8 - None None - -
02/25/2017 12:16 Wet 39.0F - 31F 32F 5 0% 0.00 in - 0% 0 mhos 11 - Yes - - -
02/25/2017 12:08 Dry 39.4F - 31F - - - - - - 0 mhos 5 - None None - -
02/25/2017 12:01 Wet 38.1F - 31F 32F 5 0% 0.00 in - 0% 0 mhos 6 - None None - -
02/25/2017 11:58 Wet 38.1F - 31F 32F 5 0% 0.00 in - 0% 0 mhos 6 - None None - -
02/25/2017 11:48 Wet 37.4F - 31F 32F 5 0% 0.00 in - 0% 0 mhos 6 - None None - -
02/25/2017 11:46 Wet 37.8F - 31F 32F 5 0% 0.00 in - 0% 0 mhos 6 - None None - -
02/25/2017 11:38 Wet 36.1F - 31F 32F 5 0% 0.00 in - 0% 0 mhos 7 - None None - -
02/25/2017 11:31 Wet 34.9F - 31F 32F 5 0% 0.00 in - 0% 0 mhos 7 - None None - -
02/25/2017 11:28 Wet 34.9F - 31F 32F 5 0% 0.00 in - 0% 0 mhos 7 - None None - -
02/25/2017 11:18 Wet 36.0F - 31F 32F 5 0% 0.00 in - 0% 0 mhos 7 - None None - -
02/25/2017 11:16 Wet 35.6F - 31F 32F 5 0% 0.00 in - 0% 0 mhos 7 - None None - -
02/25/2017 11:08 Wet 34.2F - 31F 32F 5 0% 0.00 in - 0% 0 mhos 8 - None None - -
02/25/2017 11:01 Wet 32.4F - 31F 32F 5 0% 0.00 in - 0% 0 mhos 8 - None None - -
Date/Time
(MST)
Sf
Temp Chem Water Layer Surface Precipitation
Sfc Pvt Sub Frz Factor Pct Dpth DpthThk IcePct Cond Salin FI Type Intens Accum Rate
02/25/2017 10:58 Wet 32.5F - 31F 32F 5 0% 0.00 in - 0% 0 mhos 8 - None None - -
02/25/2017 10:48 Ice Warning 31.8F - 31F 32F 5 0% - - 95% 0 mhos 8 - None None - -
02/25/2017 10:46 Wet 32.5F - 31F 32F 5 0% 0.00 in - 0% 0 mhos 8 - None None - -
02/25/2017 10:37 Wet 32.5F - 31F 32F 5 0% 0.00 in - 0% 0 mhos 7 - None None - -
02/25/2017 10:31 Wet 32.7F - 31F 32F 5 0% 0.00 in - 0% 0 mhos 7 - None None - -
02/25/2017 10:27 Wet 33.1F - 31F 32F 5 0% 0.00 in - 0% 0 mhos 6 - None None - -
02/25/2017 10:17 Wet 36.1F - 31F 32F 5 0% 0.00 in - 0% 0 mhos 6 - None None - -
02/25/2017 10:16 Wet 36.9F - 31F 32F 5 0% 0.00 in - 0% 0 mhos 6 - None None - -
02/25/2017 10:07 Wet 37.2F - 31F 32F 5 0% 0.00 in - 0% 0 mhos 7 - None None - -
02/25/2017 10:01 Wet 35.6F - 31F 32F 5 0% 0.00 in - 0% 0 mhos 8 - None None - -
02/25/2017 09:57 Wet 34.5F - 31F 32F 5 0% 0.00 in - 0% 0 mhos 10 - None None - -
02/25/2017 09:47 Ice Warning 31.6F - 31F 32F 5 0% - - 95% 0 mhos 13 - None None - -
02/25/2017 09:46 Ice Warning 31.1F - 31F 32F 5 0% - - 98% 0 mhos 14 - None None - -
02/25/2017 09:37 Ice Warning 29.3F - 31F 32F 10 0% - - 99% 0 mhos 18 - None None - -
02/25/2017 09:31 Ice Warning 27.9F - 31F 32F 15 0% - - 99% 0 mhos 22 - None None - -
Date/Time
(MST)
Sf
Temp Chem Water Layer Surface Precipitation
Sfc Pvt Sub Frz Factor Pct Dpth DpthThk IcePct Cond Salin FI Type Intens Accum Rate
02/25/2017 09:27 Ice Warning 26.2F - 31F 32F 20 0% - - 100% 0 mhos 22 - None None - -
02/25/2017 09:17 Ice Warning 25.5F - 31F 32F 20 0% - - 100% 0 mhos 23 - None None - -
02/25/2017 09:16 Ice Warning 25.5F - 31F 32F 20 0% - - 100% 0 mhos 24 - None None - -
02/25/2017 09:07 Ice Warning 24.4F - 31F 32F 25 0% - - 100% 0 mhos 24 - None None - -
02/25/2017 09:01 Ice Warning 23.4F - 31F 32F 25 0% - - 100% 0 mhos 24 - None None - -
02/25/2017 08:57 Ice Warning 23.0F - 31F 32F 25 0% - - 100% 0 mhos 24 - None None - -
02/25/2017 08:47 Ice Warning 21.9F - 32F 32F 25 0% - - 100% 0 mhos 25 - None None - -
02/25/2017 08:46 Ice Warning 21.9F - 32F 32F 25 0% - - 100% 0 mhos 25 - None None - -
02/25/2017 08:37 Ice Warning 21.9F - 32F 32F 30 0% - - 100% 0 mhos 25 - None None - -
02/25/2017 08:31 Ice Warning 21.4F - 32F 32F 20 0% - - 100% 0 mhos 21 - Yes - - -
02/25/2017 08:27 Ice Warning 21.6F - 32F 32F 20 0% - - 100% 0 mhos 19 - Yes - - -
02/25/2017 08:17 Ice Warning 20.3F - 32F 32F 15 0% - - 100% 0 mhos 18 - None None - -
02/25/2017 08:16 Ice Warning 20.3F - 32F 32F 15 0% - - 100% 0 mhos 18 - None None - -
02/25/2017 08:07 Ice Warning 20.3F - 32F 32F 15 0% - - 100% 0 mhos 18 - None None - -
02/25/2017 08:01 Ice Warning 20.3F - 32F 32F 20 0% - - 100% 0 mhos 18 - None None - -
Date/Time
(MST)
Sf
Temp Chem Water Layer Surface Precipitation
Sfc Pvt Sub Frz Factor Pct Dpth DpthThk IcePct Cond Salin FI Type Intens Accum Rate
02/25/2017 07:57 Ice Warning 20.3F - 32F 32F 15 0% - - 100% 0 mhos 18 - None None - -
02/25/2017 07:47 Ice Warning 19.6F - 32F 32F 15 0% - - 100% 0 mhos 18 - None None - -
02/25/2017 07:46 Ice Warning 19.4F - 32F 32F 20 0% - - 100% 0 mhos 18 - None None - -
02/25/2017 07:37 Ice Warning 18.9F - 32F 32F 15 0% - - 100% 0 mhos 18 - None None - -
02/25/2017 07:31 Ice Warning 18.7F - 32F 32F 15 0% - - 100% 0 mhos 19 - None None - -
02/25/2017 07:27 Ice Warning 18.5F - 32F 32F 15 0% - - 100% 0 mhos 19 - None None - -
02/25/2017 07:16 Ice Warning 18.3F - 32F 32F 15 0% - - 100% 0 mhos 19 - None None - -
02/25/2017 07:16 Ice Warning 18.3F - 32F 32F 15 0% - - 100% 0 mhos 19 - None None - -
02/25/2017 07:06 Ice Warning 18.3F - 32F 32F 20 0% - - 100% 0 mhos 19 - None None - -
02/25/2017 07:01 Ice Warning 18.7F - 32F 32F 20 0% - - 100% 0 mhos 19 - None None - -
02/25/2017 06:56 Ice Warning 19.0F - 32F 32F 20 0% - - 100% 0 mhos 20 - None None - -
02/25/2017 06:46 Ice Warning 19.4F - 32F 32F 25 0% - - 100% 0 mhos 20 - None None - -
02/25/2017 06:46 Ice Warning 19.4F - 32F 32F 25 0% - - 100% 0 mhos 20 - None None - -
02/25/2017 06:36 Ice Warning 19.4F - 32F 32F 25 0% - - 100% 0 mhos 21 - None None - -
02/25/2017 06:31 Ice Warning 19.6F - 32F 32F 25 0% - - 100% 0 mhos 21 - None None - -
Date/Time
(MST)
Sf
Temp Chem Water Layer Surface Precipitation
Sfc Pvt Sub Frz Factor Pct Dpth DpthThk IcePct Cond Salin FI Type Intens Accum Rate
02/25/2017 06:26 Ice Warning 19.6F - 32F 32F 25 0% - - 100% 0 mhos 21 - None None - -
02/25/2017 06:16 Ice Warning 19.8F - 32F 32F 30 0% - - 100% 0 mhos 21 - None None - -
02/25/2017 06:16 Ice Warning 19.8F - 32F 32F 30 0% - - 100% 0 mhos 21 - None None - -
02/25/2017 06:06 Ice Warning 20.3F - 32F 32F 35 0% - - 100% 0 mhos 22 - None None - -
02/25/2017 06:01 Ice Warning 20.8F - 32F 32F 30 0% - - 100% 0 mhos 22 - None None - -
02/25/2017 05:56 Ice Warning 21.2F - 32F 32F 30 0% - - 100% 0 mhos 22 - None None - -
02/25/2017 05:46 Ice Warning 21.7F - 32F 32F 30 0% - - 100% 0 mhos 22 - None None - -
02/25/2017 05:46 Ice Warning 21.7F - 32F 32F 30 0% - - 100% 0 mhos 22 - None None - -
02/25/2017 05:36 Ice Warning 22.1F - 32F 32F 30 0% - - 100% 0 mhos 22 - None None - -
02/25/2017 05:31 Ice Warning 22.1F - 32F 32F 35 0% - - 100% 0 mhos 22 - None None - -
02/25/2017 05:26 Ice Warning 22.5F - 32F 32F 35 0% - - 100% 0 mhos 23 - None None - -
02/25/2017 05:16 Ice Warning 22.1F - 32F 32F 30 0% - - 100% 0 mhos 23 - None None - -
02/25/2017 05:16 Ice Warning 22.1F - 32F 32F 30 0% - - 100% 0 mhos 23 - None None - -
02/25/2017 05:06 Ice Warning 22.1F - 32F 32F 35 0% - - 100% 0 mhos 24 - None None - -
02/25/2017 05:01 Ice Warning 22.3F - 32F 32F 30 0% - - 100% 0 mhos 24 - None None - -
Date/Time
(MST)
Sf
Temp Chem Water Layer Surface Precipitation
Sfc Pvt Sub Frz Factor Pct Dpth DpthThk IcePct Cond Salin FI Type Intens Accum Rate
02/25/2017 04:56 Ice Warning 22.3F - 32F 32F 35 0% - - 100% 0 mhos 24 - None None - -
02/25/2017 04:46 Ice Warning 22.5F - 32F 32F 45 0% - - 100% 0 mhos 25 - None None - -
02/25/2017 04:46 Ice Warning 22.5F - 32F 32F 45 0% - - 100% 0 mhos 25 - None None - -
02/25/2017 04:36 Ice Warning 22.5F - 32F 32F 40 0% - - 100% 0 mhos 23 - Yes - - -
02/25/2017 04:31 Ice Warning 22.5F - 32F 32F 35 0% - - 100% 0 mhos 19 - None None - -
02/25/2017 04:26 Ice Warning 22.1F - 32F 32F 35 0% - - 100% 0 mhos 19 - None None - -
02/25/2017 04:16 Ice Warning 22.1F - 32F 32F 25 0% - - 100% 0 mhos 15 - Yes - - -
02/25/2017 04:16 Ice Warning 22.1F - 32F 32F 25 0% - - 100% 0 mhos 15 - Yes - - -
02/25/2017 04:06 Ice Warning 21.9F - 32F 32F 25 0% - - 100% 0 mhos 14 - None None - -
02/25/2017 04:01 Ice Warning 21.7F - 32F 32F 25 0% - - 100% 0 mhos 14 - None None - -
02/25/2017 03:55 Ice Warning 21.9F - 32F 32F 25 0% - - 100% 0 mhos 14 - None None - -
02/25/2017 03:46 Ice Warning 22.1F - 32F 32F 25 0% - - 100% 0 mhos 14 - None None - -
02/25/2017 03:45 Ice Warning 22.1F - 32F 32F 25 0% - - 100% 0 mhos 14 - None None - -
02/25/2017 03:35 Ice Warning 22.1F - 32F 32F 25 0% - - 100% 0 mhos 14 - None None - -
02/25/2017 03:31 Ice Warning 21.7F - 32F 32F 20 0% - - 100% 0 mhos 14 - None None - -
Date/Time
(MST)
Sf
Temp Chem Water Layer Surface Precipitation
Sfc Pvt Sub Frz Factor Pct Dpth DpthThk IcePct Cond Salin FI Type Intens Accum Rate
02/25/2017 03:25 Ice Warning 21.7F - 32F 32F 25 0% - - 100% 0 mhos 14 - None None - -
02/25/2017 03:16 Ice Warning 21.9F - 32F 32F 25 0% - - 100% 0 mhos 14 - None None - -
02/25/2017 03:15 Ice Warning 21.9F - 32F 32F 25 0% - - 100% 0 mhos 14 - None None - -
02/25/2017 03:05 Ice Warning 22.1F - 32F 32F 30 0% - - 100% 0 mhos 15 - None None - -
02/25/2017 03:01 Ice Warning 22.5F - 32F 32F 25 0% - - 100% 0 mhos 15 - None None - -
02/25/2017 02:55 Ice Warning 22.8F - 32F 32F 30 0% - - 100% 0 mhos 14 - None None - -
02/25/2017 02:46 Ice Warning 23.0F - 32F 32F 30 0% - - 100% 0 mhos 14 - None None - -
02/25/2017 02:45 Ice Warning 23.0F - 32F 32F 30 0% - - 100% 0 mhos 14 - None None - -
02/25/2017 02:35 Ice Warning 23.2F - 32F 32F 30 0% - - 100% 0 mhos 14 - None None - -
02/25/2017 02:31 Ice Warning 23.2F - 32F 32F 30 0% - - 100% 0 mhos 14 - None None - -
02/25/2017 02:25 Ice Warning 23.2F - 32F 32F 30 0% - - 100% 0 mhos 14 - None None - -
02/25/2017 02:16 Ice Warning 22.8F - 32F 32F 25 0% - - 100% 0 mhos 14 - None None - -
02/25/2017 02:15 Ice Warning 22.8F - 32F 32F 25 0% - - 100% 0 mhos 14 - None None - -
02/25/2017 02:05 Ice Warning 22.6F - 32F 32F 25 0% - - 100% 0 mhos 14 - None None - -
02/25/2017 02:01 Ice Warning 22.6F - 32F 32F 30 0% - - 100% 0 mhos 14 - None None - -
Date/Time
(MST)
Sf
Temp Chem Water Layer Surface Precipitation
Sfc Pvt Sub Frz Factor Pct Dpth DpthThk IcePct Cond Salin FI Type Intens Accum Rate
02/25/2017 01:55 Ice Warning 22.8F - 32F 32F 25 0% - - 100% 0 mhos 14 - None None - -
02/25/2017 01:46 Ice Warning 22.8F - 33F 32F 30 0% - - 100% 0 mhos 13 - None None - -
02/25/2017 01:45 Ice Warning 22.8F - 33F 32F 30 0% - - 100% 0 mhos 13 - None None - -
02/25/2017 01:35 Ice Warning 23.2F - 33F 32F 30 0% - - 100% 0 mhos 13 - None None - -
02/25/2017 01:31 Ice Warning 23.2F - 33F 32F 30 0% - - 100% 0 mhos 13 - None None - -
02/25/2017 01:25 Ice Warning 23.4F - 33F 32F 30 0% - - 100% 0 mhos 13 - None None - -
02/25/2017 01:16 Ice Warning 23.4F - 33F 32F 30 0% - - 100% 0 mhos 13 - None None - -
02/25/2017 01:15 Ice Warning 23.4F - 33F 32F 30 0% - - 100% 0 mhos 13 - None None - -
02/25/2017 01:05 Ice Warning 23.2F - 33F 32F 30 0% - - 100% 0 mhos 12 - None None - -
02/25/2017 01:01 Ice Warning 23.0F - 33F 32F 25 0% - - 100% 0 mhos 12 - None None - -
02/25/2017 00:55 Ice Warning 23.0F - 33F 32F 25 0% - - 100% 0 mhos 10 - None None - -
02/25/2017 00:46 Ice Warning 22.6F - 33F 32F 25 0% - - 100% 0 mhos 11 - None None - -
02/25/2017 00:44 Ice Warning 22.8F - 33F 32F 30 0% - - 100% 0 mhos 11 - None None - -
Change End Date:

Copyright © 1998-2015 Vaisala, Inc.
All Rights Reserved
Send comments about the data to:
SCAN Web ® is a registered trademark of Vaisala, Inc.
SCAN Web Version 6.0